sensor_id;sensor_type;location;lat;lon;timestamp;temperature;humidity
8736;DHT22;4404;49.308;12.178;2022-10-22T00:05:15;13.20;99.90
8736;DHT22;4404;49.308;12.178;2022-10-22T00:11:19;13.20;99.90
8736;DHT22;4404;49.308;12.178;2022-10-22T00:17:21;13.20;99.90
8736;DHT22;4404;49.308;12.178;2022-10-22T00:23:25;13.20;99.90
8736;DHT22;4404;49.308;12.178;2022-10-22T00:29:27;13.10;99.90
8736;DHT22;4404;49.308;12.178;2022-10-22T00:35:30;13.10;99.90
8736;DHT22;4404;49.308;12.178;2022-10-22T00:41:34;13.10;99.90
8736;DHT22;4404;49.308;12.178;2022-10-22T00:47:37;13.10;99.90
8736;DHT22;4404;49.308;12.178;2022-10-22T00:53:44;13.10;99.90
8736;DHT22;4404;49.308;12.178;2022-10-22T00:59:49;13.00;99.90
8736;DHT22;4404;49.308;12.178;2022-10-22T01:05:55;13.00;99.90
8736;DHT22;4404;49.308;12.178;2022-10-22T01:12:03;13.00;99.90
8736;DHT22;4404;49.308;12.178;2022-10-22T01:18:18;13.00;99.90
8736;DHT22;4404;49.308;12.178;2022-10-22T01:24:38;12.90;99.90
8736;DHT22;4404;49.308;12.178;2022-10-22T01:30:50;12.90;99.90
8736;DHT22;4404;49.308;12.178;2022-10-22T01:36:56;13.00;99.90
8736;DHT22;4404;49.308;12.178;2022-10-22T01:43:02;12.90;99.90
8736;DHT22;4404;49.308;12.178;2022-10-22T01:49:16;12.80;99.90
8736;DHT22;4404;49.308;12.178;2022-10-22T01:55:27;12.80;99.90
8736;DHT22;4404;49.308;12.178;2022-10-22T02:01:40;12.80;99.90
8736;DHT22;4404;49.308;12.178;2022-10-22T02:07:54;13.00;99.90
8736;DHT22;4404;49.308;12.178;2022-10-22T02:14:01;13.00;99.90
8736;DHT22;4404;49.308;12.178;2022-10-22T02:20:07;13.00;99.90
8736;DHT22;4404;49.308;12.178;2022-10-22T02:26:20;13.10;99.90
8736;DHT22;4404;49.308;12.178;2022-10-22T02:32:27;13.00;99.90
8736;DHT22;4404;49.308;12.178;2022-10-22T02:38:33;13.00;99.90
8736;DHT22;4404;49.308;12.178;2022-10-22T02:44:38;13.00;99.90
8736;DHT22;4404;49.308;12.178;2022-10-22T02:50:41;12.90;99.90
8736;DHT22;4404;49.308;12.178;2022-10-22T02:56:47;12.90;99.90
8736;DHT22;4404;49.308;12.178;2022-10-22T03:02:51;12.90;99.90
8736;DHT22;4404;49.308;12.178;2022-10-22T03:08:53;12.90;99.90
8736;DHT22;4404;49.308;12.178;2022-10-22T03:14:56;12.80;99.90
8736;DHT22;4404;49.308;12.178;2022-10-22T03:21:07;12.80;99.90
8736;DHT22;4404;49.308;12.178;2022-10-22T03:27:14;12.80;99.90
8736;DHT22;4404;49.308;12.178;2022-10-22T03:33:19;12.80;99.90
8736;DHT22;4404;49.308;12.178;2022-10-22T03:39:23;12.90;99.90
8736;DHT22;4404;49.308;12.178;2022-10-22T03:45:25;12.90;99.90
8736;DHT22;4404;49.308;12.178;2022-10-22T03:51:28;13.00;99.90
8736;DHT22;4404;49.308;12.178;2022-10-22T03:57:31;13.00;99.90
8736;DHT22;4404;49.308;12.178;2022-10-22T04:03:34;12.90;99.90
8736;DHT22;4404;49.308;12.178;2022-10-22T04:09:37;13.00;99.90
8736;DHT22;4404;49.308;12.178;2022-10-22T04:15:41;13.00;99.90
8736;DHT22;4404;49.308;12.178;2022-10-22T04:21:44;13.10;99.90
8736;DHT22;4404;49.308;12.178;2022-10-22T04:27:46;13.10;99.90
8736;DHT22;4404;49.308;12.178;2022-10-22T04:33:53;13.00;99.90
8736;DHT22;4404;49.308;12.178;2022-10-22T04:39:58;13.00;99.90
8736;DHT22;4404;49.308;12.178;2022-10-22T04:46:00;13.10;99.90
8736;DHT22;4404;49.308;12.178;2022-10-22T04:52:05;13.10;99.90
8736;DHT22;4404;49.308;12.178;2022-10-22T04:58:07;13.20;99.90
8736;DHT22;4404;49.308;12.178;2022-10-22T05:04:12;13.20;99.90
8736;DHT22;4404;49.308;12.178;2022-10-22T05:10:17;13.20;99.90
8736;DHT22;4404;49.308;12.178;2022-10-22T05:16:19;13.20;99.90
8736;DHT22;4404;49.308;12.178;2022-10-22T05:22:21;13.10;99.90
8736;DHT22;4404;49.308;12.178;2022-10-22T05:28:25;13.10;99.90
8736;DHT22;4404;49.308;12.178;2022-10-22T05:34:27;13.10;99.90
8736;DHT22;4404;49.308;12.178;2022-10-22T05:40:31;13.10;99.90
8736;DHT22;4404;49.308;12.178;2022-10-22T05:46:35;13.10;99.90
8736;DHT22;4404;49.308;12.178;2022-10-22T05:52:38;13.10;99.90
8736;DHT22;4404;49.308;12.178;2022-10-22T05:58:40;13.20;99.90
8736;DHT22;4404;49.308;12.178;2022-10-22T06:04:46;13.10;99.90
8736;DHT22;4404;49.308;12.178;2022-10-22T06:10:49;13.20;99.90
8736;DHT22;4404;49.308;12.178;2022-10-22T06:16:52;13.20;99.90
8736;DHT22;4404;49.308;12.178;2022-10-22T06:22:56;13.30;99.90
8736;DHT22;4404;49.308;12.178;2022-10-22T06:28:58;13.30;99.90
8736;DHT22;4404;49.308;12.178;2022-10-22T06:35:01;13.30;99.90
8736;DHT22;4404;49.308;12.178;2022-10-22T06:41:06;13.30;99.90
8736;DHT22;4404;49.308;12.178;2022-10-22T06:47:09;13.40;99.90
8736;DHT22;4404;49.308;12.178;2022-10-22T06:53:12;13.40;99.90
8736;DHT22;4404;49.308;12.178;2022-10-22T06:59:16;13.50;99.90
8736;DHT22;4404;49.308;12.178;2022-10-22T07:05:18;13.50;99.90
8736;DHT22;4404;49.308;12.178;2022-10-22T07:11:22;13.50;99.90
8736;DHT22;4404;49.308;12.178;2022-10-22T07:17:27;13.60;99.90
8736;DHT22;4404;49.308;12.178;2022-10-22T07:23:30;13.60;99.90
8736;DHT22;4404;49.308;12.178;2022-10-22T07:29:32;13.60;99.90
8736;DHT22;4404;49.308;12.178;2022-10-22T07:35:37;13.70;99.90
8736;DHT22;4404;49.308;12.178;2022-10-22T07:41:40;13.60;99.90
8736;DHT22;4404;49.308;12.178;2022-10-22T07:47:46;13.60;99.90
8736;DHT22;4404;49.308;12.178;2022-10-22T07:53:50;13.60;99.90
8736;DHT22;4404;49.308;12.178;2022-10-22T07:59:52;13.60;99.90
8736;DHT22;4404;49.308;12.178;2022-10-22T08:05:56;13.60;99.90
8736;DHT22;4404;49.308;12.178;2022-10-22T08:12:02;13.60;99.90
8736;DHT22;4404;49.308;12.178;2022-10-22T08:18:05;13.60;99.90
8736;DHT22;4404;49.308;12.178;2022-10-22T08:24:08;13.60;99.90
8736;DHT22;4404;49.308;12.178;2022-10-22T08:30:12;13.70;99.90
8736;DHT22;4404;49.308;12.178;2022-10-22T08:36:15;13.80;99.90
8736;DHT22;4404;49.308;12.178;2022-10-22T08:42:38;13.80;99.90
8736;DHT22;4404;49.308;12.178;2022-10-22T08:48:55;13.80;99.90
8736;DHT22;4404;49.308;12.178;2022-10-22T08:55:02;13.70;99.90
8736;DHT22;4404;49.308;12.178;2022-10-22T09:01:11;13.80;99.90
8736;DHT22;4404;49.308;12.178;2022-10-22T09:07:17;13.90;99.90
8736;DHT22;4404;49.308;12.178;2022-10-22T09:13:22;13.80;99.90
8736;DHT22;4404;49.308;12.178;2022-10-22T09:19:28;13.80;99.90
8736;DHT22;4404;49.308;12.178;2022-10-22T09:25:44;13.80;99.90
8736;DHT22;4404;49.308;12.178;2022-10-22T09:31:48;13.90;99.90
8736;DHT22;4404;49.308;12.178;2022-10-22T09:37:53;13.90;99.90
8736;DHT22;4404;49.308;12.178;2022-10-22T09:43:58;14.00;99.90
8736;DHT22;4404;49.308;12.178;2022-10-22T09:50:08;14.00;99.90
8736;DHT22;4404;49.308;12.178;2022-10-22T09:56:24;14.00;99.90
8736;DHT22;4404;49.308;12.178;2022-10-22T10:02:30;14.00;99.90
8736;DHT22;4404;49.308;12.178;2022-10-22T10:08:36;14.10;99.90
8736;DHT22;4404;49.308;12.178;2022-10-22T10:14:44;14.30;99.90
8736;DHT22;4404;49.308;12.178;2022-10-22T10:20:57;14.40;99.90
8736;DHT22;4404;49.308;12.178;2022-10-22T10:27:08;14.40;99.90
8736;DHT22;4404;49.308;12.178;2022-10-22T10:33:27;14.30;99.90
8736;DHT22;4404;49.308;12.178;2022-10-22T10:39:44;14.60;99.90
8736;DHT22;4404;49.308;12.178;2022-10-22T10:46:04;14.60;99.90
8736;DHT22;4404;49.308;12.178;2022-10-22T10:52:23;14.70;99.90
8736;DHT22;4404;49.308;12.178;2022-10-22T10:58:39;14.80;99.90
8736;DHT22;4404;49.308;12.178;2022-10-22T11:05:06;14.90;99.90
8736;DHT22;4404;49.308;12.178;2022-10-22T11:11:17;15.20;99.90
8736;DHT22;4404;49.308;12.178;2022-10-22T11:17:23;15.50;99.90
8736;DHT22;4404;49.308;12.178;2022-10-22T11:23:31;15.60;99.90
8736;DHT22;4404;49.308;12.178;2022-10-22T11:29:40;15.70;99.90
8736;DHT22;4404;49.308;12.178;2022-10-22T11:35:47;15.80;99.90
8736;DHT22;4404;49.308;12.178;2022-10-22T11:41:52;15.90;99.90
8736;DHT22;4404;49.308;12.178;2022-10-22T11:47:58;16.00;99.90
8736;DHT22;4404;49.308;12.178;2022-10-22T11:54:30;16.00;99.90
8736;DHT22;4404;49.308;12.178;2022-10-22T12:00:46;16.30;99.90
8736;DHT22;4404;49.308;12.178;2022-10-22T12:06:58;16.50;99.90
8736;DHT22;4404;49.308;12.178;2022-10-22T12:13:10;16.50;99.90
8736;DHT22;4404;49.308;12.178;2022-10-22T12:19:17;16.50;99.90
8736;DHT22;4404;49.308;12.178;2022-10-22T12:25:30;16.40;99.90
8736;DHT22;4404;49.308;12.178;2022-10-22T12:31:37;16.50;99.90
8736;DHT22;4404;49.308;12.178;2022-10-22T12:37:41;17.00;99.90
8736;DHT22;4404;49.308;12.178;2022-10-22T12:43:44;17.10;99.90
8736;DHT22;4404;49.308;12.178;2022-10-22T12:49:49;17.20;99.90
8736;DHT22;4404;49.308;12.178;2022-10-22T12:55:53;17.10;99.90
8736;DHT22;4404;49.308;12.178;2022-10-22T13:01:57;17.10;99.90
8736;DHT22;4404;49.308;12.178;2022-10-22T13:08:04;16.90;99.90
8736;DHT22;4404;49.308;12.178;2022-10-22T13:14:25;16.90;99.90
8736;DHT22;4404;49.308;12.178;2022-10-22T13:20:29;16.70;99.90
8736;DHT22;4404;49.308;12.178;2022-10-22T13:26:34;16.90;99.90
8736;DHT22;4404;49.308;12.178;2022-10-22T13:32:38;17.60;99.90
8736;DHT22;4404;49.308;12.178;2022-10-22T13:38:41;18.10;99.90
8736;DHT22;4404;49.308;12.178;2022-10-22T13:44:49;18.50;99.90
8736;DHT22;4404;49.308;12.178;2022-10-22T13:50:52;18.70;99.90
8736;DHT22;4404;49.308;12.178;2022-10-22T13:56:55;19.00;99.90
8736;DHT22;4404;49.308;12.178;2022-10-22T14:03:00;19.20;99.90
8736;DHT22;4404;49.308;12.178;2022-10-22T14:09:09;19.30;99.90
8736;DHT22;4404;49.308;12.178;2022-10-22T14:15:18;19.20;99.90
8736;DHT22;4404;49.308;12.178;2022-10-22T14:21:23;19.20;99.90
8736;DHT22;4404;49.308;12.178;2022-10-22T14:27:25;19.30;99.90
8736;DHT22;4404;49.308;12.178;2022-10-22T14:33:30;19.30;99.90
8736;DHT22;4404;49.308;12.178;2022-10-22T14:39:35;19.30;99.90
8736;DHT22;4404;49.308;12.178;2022-10-22T14:45:37;19.20;99.90
8736;DHT22;4404;49.308;12.178;2022-10-22T14:51:40;19.00;99.90
8736;DHT22;4404;49.308;12.178;2022-10-22T14:57:44;18.70;99.90
8736;DHT22;4404;49.308;12.178;2022-10-22T15:03:49;18.50;99.90
8736;DHT22;4404;49.308;12.178;2022-10-22T15:09:55;18.40;99.90
8736;DHT22;4404;49.308;12.178;2022-10-22T15:15:59;18.20;99.90
8736;DHT22;4404;49.308;12.178;2022-10-22T15:22:02;18.10;99.90
8736;DHT22;4404;49.308;12.178;2022-10-22T15:28:05;18.10;99.90
8736;DHT22;4404;49.308;12.178;2022-10-22T15:34:09;18.00;99.90
8736;DHT22;4404;49.308;12.178;2022-10-22T15:40:11;17.90;99.90
8736;DHT22;4404;49.308;12.178;2022-10-22T15:46:16;17.70;99.90
8736;DHT22;4404;49.308;12.178;2022-10-22T15:52:20;17.60;99.90
8736;DHT22;4404;49.308;12.178;2022-10-22T15:58:23;17.30;99.90
8736;DHT22;4404;49.308;12.178;2022-10-22T16:04:25;17.00;99.90
8736;DHT22;4404;49.308;12.178;2022-10-22T16:10:29;16.80;99.90
8736;DHT22;4404;49.308;12.178;2022-10-22T16:16:33;16.60;99.90
8736;DHT22;4404;49.308;12.178;2022-10-22T16:22:39;16.30;99.90
8736;DHT22;4404;49.308;12.178;2022-10-22T16:28:44;16.00;99.90
8736;DHT22;4404;49.308;12.178;2022-10-22T16:34:47;15.80;99.90
8736;DHT22;4404;49.308;12.178;2022-10-22T16:40:49;15.60;99.90
8736;DHT22;4404;49.308;12.178;2022-10-22T16:46:54;15.30;99.90
8736;DHT22;4404;49.308;12.178;2022-10-22T16:52:56;15.20;99.90
8736;DHT22;4404;49.308;12.178;2022-10-22T16:58:59;15.10;99.90
8736;DHT22;4404;49.308;12.178;2022-10-22T17:05:03;15.00;99.90
8736;DHT22;4404;49.308;12.178;2022-10-22T17:11:07;14.90;99.90
8736;DHT22;4404;49.308;12.178;2022-10-22T17:17:10;14.80;99.90
8736;DHT22;4404;49.308;12.178;2022-10-22T17:23:15;14.70;99.90
8736;DHT22;4404;49.308;12.178;2022-10-22T17:29:18;14.70;99.90
8736;DHT22;4404;49.308;12.178;2022-10-22T17:35:21;14.60;99.90
8736;DHT22;4404;49.308;12.178;2022-10-22T17:41:28;14.60;99.90
8736;DHT22;4404;49.308;12.178;2022-10-22T17:47:32;14.70;99.90
8736;DHT22;4404;49.308;12.178;2022-10-22T17:53:35;14.60;99.90
8736;DHT22;4404;49.308;12.178;2022-10-22T17:59:40;14.60;99.90
8736;DHT22;4404;49.308;12.178;2022-10-22T18:05:43;14.60;99.90
8736;DHT22;4404;49.308;12.178;2022-10-22T18:11:46;14.50;99.90
8736;DHT22;4404;49.308;12.178;2022-10-22T18:17:52;14.50;99.90
8736;DHT22;4404;49.308;12.178;2022-10-22T18:23:54;14.40;99.90
8736;DHT22;4404;49.308;12.178;2022-10-22T18:29:58;14.30;99.90
8736;DHT22;4404;49.308;12.178;2022-10-22T18:36:10;14.20;99.90
8736;DHT22;4404;49.308;12.178;2022-10-22T18:42:13;14.10;99.90
8736;DHT22;4404;49.308;12.178;2022-10-22T18:48:17;14.00;99.90
8736;DHT22;4404;49.308;12.178;2022-10-22T18:54:23;14.00;99.90
8736;DHT22;4404;49.308;12.178;2022-10-22T19:00:26;14.00;99.90
8736;DHT22;4404;49.308;12.178;2022-10-22T19:06:30;13.90;99.90
8736;DHT22;4404;49.308;12.178;2022-10-22T19:12:34;13.90;99.90
8736;DHT22;4404;49.308;12.178;2022-10-22T19:18:37;13.90;99.90
8736;DHT22;4404;49.308;12.178;2022-10-22T19:24:39;13.80;99.90
8736;DHT22;4404;49.308;12.178;2022-10-22T19:30:43;13.80;99.90
8736;DHT22;4404;49.308;12.178;2022-10-22T19:36:48;13.70;99.90
8736;DHT22;4404;49.308;12.178;2022-10-22T19:42:52;13.70;99.90
8736;DHT22;4404;49.308;12.178;2022-10-22T19:48:56;13.70;99.90
8736;DHT22;4404;49.308;12.178;2022-10-22T19:54:59;13.70;99.90
8736;DHT22;4404;49.308;12.178;2022-10-22T20:01:04;13.60;99.90
8736;DHT22;4404;49.308;12.178;2022-10-22T20:07:08;13.60;99.90
8736;DHT22;4404;49.308;12.178;2022-10-22T20:13:11;13.50;99.90
8736;DHT22;4404;49.308;12.178;2022-10-22T20:19:14;13.40;99.90
8736;DHT22;4404;49.308;12.178;2022-10-22T20:25:19;13.50;99.90
8736;DHT22;4404;49.308;12.178;2022-10-22T20:31:24;13.40;99.90
8736;DHT22;4404;49.308;12.178;2022-10-22T20:37:28;13.50;99.90
8736;DHT22;4404;49.308;12.178;2022-10-22T20:43:35;13.40;99.90
8736;DHT22;4404;49.308;12.178;2022-10-22T20:49:38;13.30;99.90
8736;DHT22;4404;49.308;12.178;2022-10-22T20:55:40;13.30;99.90
8736;DHT22;4404;49.308;12.178;2022-10-22T21:01:46;13.30;99.90
8736;DHT22;4404;49.308;12.178;2022-10-22T21:07:50;13.20;99.90
8736;DHT22;4404;49.308;12.178;2022-10-22T21:13:52;13.10;99.90
8736;DHT22;4404;49.308;12.178;2022-10-22T21:19:56;13.10;99.90
8736;DHT22;4404;49.308;12.178;2022-10-22T21:26:00;13.00;99.90
8736;DHT22;4404;49.308;12.178;2022-10-22T21:32:02;13.00;99.90
8736;DHT22;4404;49.308;12.178;2022-10-22T21:38:07;13.00;99.90
8736;DHT22;4404;49.308;12.178;2022-10-22T21:44:11;12.90;99.90
8736;DHT22;4404;49.308;12.178;2022-10-22T21:50:13;12.90;99.90
8736;DHT22;4404;49.308;12.178;2022-10-22T21:56:20;12.90;99.90
8736;DHT22;4404;49.308;12.178;2022-10-22T22:02:23;12.90;99.90
8736;DHT22;4404;49.308;12.178;2022-10-22T22:08:27;12.90;99.90
8736;DHT22;4404;49.308;12.178;2022-10-22T22:14:32;12.90;99.90
8736;DHT22;4404;49.308;12.178;2022-10-22T22:20:36;12.90;99.90
8736;DHT22;4404;49.308;12.178;2022-10-22T22:26:38;12.80;99.90
8736;DHT22;4404;49.308;12.178;2022-10-22T22:32:46;12.80;99.90
8736;DHT22;4404;49.308;12.178;2022-10-22T22:38:48;12.70;99.90
8736;DHT22;4404;49.308;12.178;2022-10-22T22:44:57;12.70;99.90
8736;DHT22;4404;49.308;12.178;2022-10-22T22:51:03;12.70;99.90
8736;DHT22;4404;49.308;12.178;2022-10-22T22:57:06;12.70;99.90
8736;DHT22;4404;49.308;12.178;2022-10-22T23:03:09;12.60;99.90
8736;DHT22;4404;49.308;12.178;2022-10-22T23:09:13;12.60;99.90
8736;DHT22;4404;49.308;12.178;2022-10-22T23:15:16;12.60;99.90
8736;DHT22;4404;49.308;12.178;2022-10-22T23:21:21;12.50;99.90
8736;DHT22;4404;49.308;12.178;2022-10-22T23:27:26;12.60;99.90
8736;DHT22;4404;49.308;12.178;2022-10-22T23:33:28;12.50;99.90
8736;DHT22;4404;49.308;12.178;2022-10-22T23:39:30;12.60;99.90
8736;DHT22;4404;49.308;12.178;2022-10-22T23:45:35;12.60;99.90
8736;DHT22;4404;49.308;12.178;2022-10-22T23:51:38;12.60;99.90
8736;DHT22;4404;49.308;12.178;2022-10-22T23:57:45;12.60;99.90
